createdAt,value
2019-05-26T00:00:32.195Z,91.99
2019-05-26T00:02:59.575Z,93.69
2019-05-26T00:05:26.950Z,93.48
2019-05-26T00:07:54.312Z,93.54
2019-05-26T00:10:21.600Z,92.54
2019-05-26T00:12:48.950Z,92.13
2019-05-26T00:15:18.487Z,92.67
2019-05-26T00:17:45.871Z,93.36
2019-05-26T00:20:13.701Z,94.47
2019-05-26T00:22:41.033Z,94.20
2019-05-26T00:25:08.677Z,93.57
2019-05-26T00:27:36.096Z,92.22
2019-05-26T00:30:03.819Z,91.88
2019-05-26T00:32:31.144Z,92.55
2019-05-26T00:34:58.490Z,91.50
2019-05-26T00:37:25.939Z,91.10
2019-05-26T00:39:53.280Z,92.51
2019-05-26T00:42:20.891Z,90.33
2019-05-26T00:44:48.235Z,92.41
2019-05-26T00:47:15.594Z,91.40
2019-05-26T00:49:43.091Z,92.89
2019-05-26T00:52:10.430Z,93.08
2019-05-26T00:54:37.749Z,92.69
2019-05-26T00:57:05.109Z,91.06
2019-05-26T00:59:32.455Z,92.35
2019-05-26T01:01:59.855Z,91.12
2019-05-26T01:04:27.425Z,92.75
2019-05-26T01:06:54.826Z,93.23
2019-05-26T01:09:22.099Z,91.43
2019-05-26T01:11:49.452Z,92.15
2019-05-26T01:14:16.810Z,93.28
2019-05-26T01:16:44.195Z,91.71
2019-05-26T01:19:11.547Z,92.28
2019-05-26T01:21:38.994Z,92.22
2019-05-26T01:24:06.294Z,92.63
2019-05-26T01:26:33.674Z,92.36
2019-05-26T01:29:00.989Z,91.40
2019-05-26T01:31:28.349Z,92.01
2019-05-26T01:33:55.850Z,91.06
2019-05-26T01:36:23.212Z,92.78
2019-05-26T01:38:50.541Z,92.77
2019-05-26T01:41:17.860Z,91.71
2019-05-26T01:43:45.214Z,90.82
2019-05-26T01:46:12.551Z,92.92
2019-05-26T01:48:39.950Z,92.79
2019-05-26T01:51:07.271Z,91.39
2019-05-26T01:53:34.611Z,90.96
2019-05-26T01:56:02.005Z,91.88
2019-05-26T01:58:29.330Z,91.12
2019-05-26T02:00:56.650Z,91.17
2019-05-26T02:03:24.013Z,90.54
2019-05-26T02:05:51.370Z,90.61
2019-05-26T02:08:18.712Z,90.36
2019-05-26T02:10:46.031Z,91.04
2019-05-26T02:13:13.393Z,90.58
2019-05-26T02:15:40.686Z,90.92
2019-05-26T02:18:09.349Z,91.95
2019-05-26T02:20:36.767Z,91.66
2019-05-26T02:23:04.569Z,92.06
2019-05-26T02:25:31.871Z,91.61
2019-05-26T02:27:59.238Z,91.28
2019-05-26T02:30:26.684Z,91.60
2019-05-26T02:32:54.010Z,92.37
2019-05-26T02:35:21.463Z,92.97
2019-05-26T02:37:48.804Z,91.83
2019-05-26T02:40:17.969Z,92.68
2019-05-26T02:42:45.335Z,92.30
2019-05-26T02:45:16.318Z,93.23
2019-05-26T02:47:44.152Z,92.42
2019-05-26T02:50:12.194Z,92.85
2019-05-26T02:52:39.534Z,92.94
2019-05-26T02:55:07.200Z,92.66
2019-05-26T02:57:34.580Z,92.53
2019-05-26T03:00:01.907Z,92.34
2019-05-26T03:02:29.273Z,93.87
2019-05-26T03:04:56.611Z,93.51
2019-05-26T03:07:25.891Z,94.00
2019-05-26T03:09:55.050Z,92.50
2019-05-26T03:12:24.351Z,92.38
2019-05-26T03:14:52.255Z,92.10
2019-05-26T03:17:20.794Z,92.34
2019-05-26T03:19:48.680Z,92.30
2019-05-26T03:22:19.329Z,91.33
2019-05-26T03:24:49.933Z,91.58
2019-05-26T03:27:17.374Z,91.34
2019-05-26T03:29:44.671Z,91.79
2019-05-26T03:32:12.040Z,91.92
2019-05-26T03:34:39.396Z,91.81
2019-05-26T03:37:06.871Z,91.15
2019-05-26T03:39:44.692Z,91.93
2019-05-26T03:42:03.605Z,91.96
2019-05-26T03:44:30.976Z,93.42
2019-05-26T03:46:58.279Z,92.76
2019-05-26T03:49:25.674Z,93.05
2019-05-26T03:51:53.010Z,93.95
2019-05-26T03:54:20.400Z,94.08
2019-05-26T03:56:47.736Z,94.20
2019-05-26T03:59:15.051Z,94.23
2019-05-26T04:01:42.391Z,94.14
2019-05-26T04:04:09.711Z,94.16
2019-05-26T04:06:37.105Z,93.97
2019-05-26T04:09:06.491Z,93.10
2019-05-26T04:11:33.870Z,92.65
2019-05-26T04:14:01.144Z,93.97
2019-05-26T04:16:28.503Z,92.81
2019-05-26T04:18:55.830Z,93.32
2019-05-26T04:21:23.170Z,92.61
2019-05-26T04:23:50.549Z,92.72
2019-05-26T04:26:18.010Z,92.61
2019-05-26T04:28:45.416Z,92.24
2019-05-26T04:31:12.732Z,92.48
2019-05-26T04:33:40.077Z,91.72
2019-05-26T04:36:07.409Z,91.87
2019-05-26T04:38:34.739Z,92.08
2019-05-26T04:41:02.465Z,93.19
2019-05-26T04:43:29.782Z,92.87
2019-05-26T04:45:57.123Z,92.63
2019-05-26T04:48:24.631Z,92.07
2019-05-26T04:50:51.953Z,92.29
2019-05-26T04:53:19.282Z,91.41
2019-05-26T04:55:46.611Z,91.75
2019-05-26T04:58:13.912Z,91.36
2019-05-26T05:00:41.255Z,90.78
2019-05-26T05:03:08.618Z,91.67
2019-05-26T05:05:35.951Z,92.79
2019-05-26T05:08:03.300Z,94.65
2019-05-26T05:10:41.852Z,93.59
2019-05-26T05:12:59.899Z,92.44
2019-05-26T05:15:27.238Z,92.16
2019-05-26T05:17:55.760Z,92.56
2019-05-26T05:20:23.080Z,92.80
2019-05-26T05:22:50.400Z,92.76
2019-05-26T05:25:17.769Z,92.73
2019-05-26T05:27:46.028Z,91.27
2019-05-26T05:30:13.523Z,90.36
2019-05-26T05:32:41.250Z,90.69
2019-05-26T05:35:08.924Z,91.57
2019-05-26T05:37:36.267Z,90.66
2019-05-26T05:40:04.505Z,91.60
2019-05-26T05:42:31.930Z,91.27
2019-05-26T05:44:59.261Z,91.38
2019-05-26T05:47:28.412Z,91.55
2019-05-26T05:49:56.975Z,90.99
2019-05-26T05:52:25.371Z,90.78
2019-05-26T05:54:52.751Z,90.22
2019-05-26T05:57:20.671Z,90.93
2019-05-26T05:59:48.412Z,90.86
2019-05-26T06:02:15.777Z,91.92
2019-05-26T06:04:43.110Z,91.93
2019-05-26T06:07:10.444Z,91.02
2019-05-26T06:09:37.817Z,90.75
2019-05-26T06:12:05.170Z,90.38
2019-05-26T06:14:32.598Z,90.01
2019-05-26T06:17:00.111Z,89.91
2019-05-26T06:19:27.513Z,91.70
2019-05-26T06:21:54.982Z,91.50
2019-05-26T06:24:22.320Z,90.48
2019-05-26T06:26:49.750Z,89.63
2019-05-26T06:29:17.055Z,89.87
2019-05-26T06:31:44.766Z,90.30
2019-05-26T06:34:12.216Z,90.18
2019-05-26T06:36:39.628Z,90.80
2019-05-26T06:39:07.761Z,90.01
2019-05-26T06:41:35.139Z,90.05
2019-05-26T06:44:02.512Z,90.78
2019-05-26T06:46:30.012Z,89.09
2019-05-26T06:48:57.354Z,89.03
2019-05-26T06:51:25.180Z,89.42
2019-05-26T06:53:52.504Z,88.79
2019-05-26T06:56:19.932Z,88.54
2019-05-26T06:58:47.350Z,87.69
2019-05-26T07:01:14.673Z,87.13
2019-05-26T07:03:42.049Z,87.46
2019-05-26T07:06:09.409Z,86.73
2019-05-26T07:08:36.850Z,85.85
2019-05-26T07:11:04.256Z,85.47
2019-05-26T07:13:31.666Z,85.31
2019-05-26T07:15:59.061Z,84.43
2019-05-26T07:18:26.436Z,83.27
2019-05-26T07:20:53.877Z,78.74
2019-05-26T07:23:21.234Z,78.30
2019-05-26T07:25:48.674Z,79.35
2019-05-26T07:28:16.057Z,79.31
2019-05-26T07:30:43.349Z,79.82
2019-05-26T07:33:10.726Z,79.37
2019-05-26T07:35:38.080Z,79.67
2019-05-26T07:38:05.413Z,76.77
2019-05-26T07:40:32.732Z,77.98
2019-05-26T07:43:00.075Z,78.17
2019-05-26T07:45:28.664Z,78.48
2019-05-26T07:47:56.012Z,76.54
2019-05-26T07:50:23.432Z,76.59
2019-05-26T07:52:50.770Z,74.72
2019-05-26T07:55:18.187Z,73.94
2019-05-26T07:57:46.634Z,74.49
2019-05-26T08:00:14.030Z,73.76
2019-05-26T08:02:41.369Z,73.73
2019-05-26T08:05:09.739Z,75.29
2019-05-26T08:07:37.110Z,72.84
2019-05-26T08:10:04.992Z,73.38
2019-05-26T08:12:33.567Z,71.86
2019-05-26T08:15:00.901Z,73.39
2019-05-26T08:17:28.282Z,72.29
2019-05-26T08:19:55.632Z,72.51
2019-05-26T08:22:23.029Z,72.77
2019-05-26T08:24:50.432Z,72.56
2019-05-26T08:27:17.900Z,71.73
2019-05-26T08:29:45.259Z,72.53
2019-05-26T08:32:15.180Z,79.23
2019-05-26T08:34:42.631Z,76.64
2019-05-26T08:37:10.077Z,79.03
2019-05-26T08:39:37.491Z,79.26
2019-05-26T08:42:04.861Z,78.26
2019-05-26T08:44:32.199Z,79.13
2019-05-26T08:46:59.537Z,78.10
2019-05-26T08:49:26.889Z,76.11
2019-05-26T08:51:54.244Z,75.23
2019-05-26T08:54:21.693Z,78.83
2019-05-26T08:56:49.005Z,78.48
2019-05-26T08:59:16.426Z,76.52
2019-05-26T09:01:43.789Z,75.45
2019-05-26T09:04:11.096Z,74.80
2019-05-26T09:06:38.434Z,73.41
2019-05-26T09:09:06.520Z,72.72
2019-05-26T09:11:33.833Z,71.74
2019-05-26T09:14:01.279Z,70.69
2019-05-26T09:16:28.641Z,70.28
2019-05-26T09:18:55.904Z,70.45
2019-05-26T09:21:23.260Z,71.05
2019-05-26T09:23:50.649Z,72.98
2019-05-26T09:26:18.088Z,70.69
2019-05-26T09:28:45.344Z,71.14
2019-05-26T09:31:12.665Z,70.56
2019-05-26T09:33:40.036Z,69.75
2019-05-26T09:36:07.318Z,69.75
2019-05-26T09:38:35.005Z,69.57
2019-05-26T09:41:02.311Z,67.01
2019-05-26T09:43:29.657Z,66.04
2019-05-26T09:45:57.001Z,62.86
2019-05-26T09:48:24.348Z,64.75
2019-05-26T09:50:51.717Z,66.24
2019-05-26T09:53:19.106Z,67.37
2019-05-26T09:55:46.472Z,67.02
2019-05-26T09:58:13.787Z,67.18
2019-05-26T10:00:43.084Z,67.04
2019-05-26T10:03:10.382Z,66.08
2019-05-26T10:05:37.743Z,65.45
2019-05-26T10:08:05.232Z,66.96
2019-05-26T10:10:32.690Z,67.20
2019-05-26T10:13:00.041Z,66.34
2019-05-26T10:15:27.438Z,68.58
2019-05-26T10:17:54.907Z,67.59
2019-05-26T10:20:23.626Z,66.42
2019-05-26T10:22:50.966Z,65.74
2019-05-26T10:25:18.302Z,66.77
2019-05-26T10:27:45.672Z,66.59
2019-05-26T10:30:13.529Z,66.08
2019-05-26T10:32:41.027Z,64.33
2019-05-26T10:35:08.574Z,63.77
2019-05-26T10:37:35.939Z,64.63
2019-05-26T10:40:03.830Z,64.65
2019-05-26T10:42:31.257Z,66.65
2019-05-26T10:44:58.630Z,67.20
2019-05-26T10:47:25.960Z,68.22
2019-05-26T10:49:53.244Z,65.98
2019-05-26T10:52:20.589Z,64.45
2019-05-26T10:54:47.918Z,63.47
2019-05-26T10:57:15.330Z,67.56
2019-05-26T10:59:42.616Z,67.43
2019-05-26T11:02:09.983Z,67.31
2019-05-26T11:04:37.298Z,65.96
2019-05-26T11:07:04.754Z,63.70
2019-05-26T11:09:32.185Z,65.36
2019-05-26T11:12:00.518Z,66.34
2019-05-26T11:14:27.961Z,66.15
2019-05-26T11:16:55.408Z,65.60
2019-05-26T11:19:22.778Z,64.84
2019-05-26T11:21:50.184Z,63.93
2019-05-26T11:24:18.418Z,64.44
2019-05-26T11:26:45.854Z,64.97
2019-05-26T11:29:13.224Z,66.48
2019-05-26T11:31:40.515Z,64.96
2019-05-26T11:34:07.911Z,65.70
2019-05-26T11:36:35.282Z,65.03
2019-05-26T11:39:04.777Z,64.90
2019-05-26T11:41:32.221Z,66.30
2019-05-26T11:43:59.586Z,65.49
2019-05-26T11:46:26.939Z,64.75
2019-05-26T11:48:54.285Z,64.91
2019-05-26T11:51:21.657Z,63.97
2019-05-26T11:53:49.049Z,64.80
2019-05-26T11:56:16.450Z,63.59
2019-05-26T11:58:43.749Z,64.01
2019-05-26T12:01:11.112Z,63.48
2019-05-26T12:03:38.505Z,62.11
2019-05-26T12:06:05.834Z,60.57
2019-05-26T12:08:33.181Z,63.07
2019-05-26T12:11:00.541Z,61.62
2019-05-26T12:13:27.880Z,61.42
2019-05-26T12:15:55.251Z,61.74
2019-05-26T12:18:22.596Z,60.18
2019-05-26T12:20:50.034Z,60.84
2019-05-26T12:23:17.426Z,60.89
2019-05-26T12:25:44.776Z,59.43
2019-05-26T12:28:12.179Z,57.50
2019-05-26T12:30:39.470Z,58.36
2019-05-26T12:33:09.620Z,57.11
2019-05-26T12:35:44.963Z,55.64
2019-05-26T12:38:12.650Z,56.95
2019-05-26T12:40:40.164Z,56.53
2019-05-26T12:43:07.551Z,55.61
2019-05-26T12:45:34.903Z,55.46
2019-05-26T12:48:02.321Z,54.59
2019-05-26T12:50:29.756Z,55.51
2019-05-26T12:52:57.110Z,53.16
2019-05-26T12:55:24.431Z,54.02
2019-05-26T12:57:51.818Z,55.47
2019-05-26T13:00:19.310Z,56.07
2019-05-26T13:02:46.668Z,57.22
2019-05-26T13:05:14.196Z,56.59
2019-05-26T13:07:41.920Z,54.60
2019-05-26T13:10:09.501Z,53.13
2019-05-26T13:12:36.841Z,53.17
2019-05-26T13:15:06.250Z,52.73
2019-05-26T13:17:34.133Z,54.66
2019-05-26T13:20:01.511Z,54.48
2019-05-26T13:22:28.951Z,53.75
2019-05-26T13:24:56.317Z,56.57
2019-05-26T13:27:23.710Z,55.60
2019-05-26T13:29:51.123Z,55.86
2019-05-26T13:32:18.451Z,54.72
2019-05-26T13:34:45.841Z,56.12
2019-05-26T13:37:13.258Z,52.61
2019-05-26T13:39:40.619Z,53.13
2019-05-26T13:42:08.032Z,54.59
2019-05-26T13:44:35.424Z,54.03
2019-05-26T13:47:02.923Z,55.89
2019-05-26T13:49:30.431Z,58.13
2019-05-26T13:51:57.818Z,58.23
2019-05-26T13:54:25.188Z,58.30
2019-05-26T13:56:52.678Z,55.94
2019-05-26T13:59:20.158Z,60.13
2019-05-26T14:01:47.558Z,55.07
2019-05-26T14:04:16.098Z,59.48
2019-05-26T14:06:43.488Z,56.98
2019-05-26T14:09:10.954Z,61.29
2019-05-26T14:11:38.414Z,59.06
2019-05-26T14:14:05.851Z,58.61
2019-05-26T14:16:33.906Z,58.31
2019-05-26T14:19:02.045Z,58.57
2019-05-26T14:21:29.435Z,56.38
2019-05-26T14:23:57.277Z,57.71
2019-05-26T14:26:24.656Z,59.37
2019-05-26T14:28:52.015Z,58.16
2019-05-26T14:31:19.481Z,57.11
2019-05-26T14:33:46.899Z,57.09
2019-05-26T14:36:14.323Z,59.94
2019-05-26T14:38:43.538Z,61.27
2019-05-26T14:41:13.361Z,58.83
2019-05-26T14:43:40.931Z,61.01
2019-05-26T14:46:08.359Z,56.28
2019-05-26T14:48:35.772Z,55.46
2019-05-26T14:51:03.829Z,53.64
2019-05-26T14:53:33.459Z,51.14
2019-05-26T14:56:01.306Z,51.15
2019-05-26T14:58:28.698Z,51.12
2019-05-26T15:00:56.073Z,50.94
2019-05-26T15:03:23.566Z,50.65
2019-05-26T15:06:05.133Z,52.09
2019-05-26T15:08:21.136Z,52.40
2019-05-26T15:10:48.596Z,53.98
2019-05-26T15:13:16.012Z,54.30
2019-05-26T15:15:45.736Z,51.99
2019-05-26T15:18:14.364Z,52.74
2019-05-26T15:20:41.723Z,53.96
2019-05-26T15:23:09.135Z,59.76
2019-05-26T15:25:36.579Z,58.57
2019-05-26T15:28:03.967Z,57.67
2019-05-26T15:30:31.454Z,56.20
2019-05-26T15:32:58.872Z,52.58
2019-05-26T15:35:26.266Z,47.46
2019-05-26T15:37:56.478Z,48.32
2019-05-26T15:40:23.880Z,45.94
2019-05-26T15:42:51.285Z,49.16
2019-05-26T15:45:20.216Z,46.42
2019-05-26T15:47:47.604Z,44.78
2019-05-26T15:50:14.956Z,46.10
2019-05-26T15:52:43.108Z,45.28
2019-05-26T15:55:10.847Z,45.73
2019-05-26T15:57:38.210Z,45.43
2019-05-26T16:00:05.793Z,45.32
2019-05-26T16:02:33.289Z,47.42
2019-05-26T16:05:01.927Z,47.04
2019-05-26T16:07:29.670Z,45.49
2019-05-26T16:09:57.088Z,45.52
2019-05-26T16:12:24.486Z,44.72
2019-05-26T16:14:52.953Z,47.07
2019-05-26T16:17:20.721Z,45.57
2019-05-26T16:19:49.190Z,45.59
2019-05-26T16:22:17.109Z,47.88
2019-05-26T16:24:44.563Z,45.25
2019-05-26T16:27:19.287Z,46.06
2019-05-26T16:29:41.244Z,47.07
2019-05-26T16:32:08.682Z,44.95
2019-05-26T16:34:36.121Z,47.00
2019-05-26T16:37:04.099Z,47.49
2019-05-26T16:39:36.832Z,47.91
2019-05-26T16:42:01.144Z,48.90
2019-05-26T16:44:28.525Z,47.20
2019-05-26T16:46:57.084Z,47.71
2019-05-26T16:49:30.199Z,47.34
2019-05-26T16:51:57.563Z,47.01
2019-05-26T16:54:24.921Z,47.62
2019-05-26T16:56:53.911Z,46.94
2019-05-26T16:59:23.178Z,47.06
2019-05-26T17:01:50.608Z,46.40
2019-05-26T17:04:19.340Z,47.14
2019-05-26T17:06:47.838Z,49.02
2019-05-26T17:09:15.706Z,48.23
2019-05-26T17:11:43.137Z,48.73
2019-05-26T17:14:11.504Z,48.82
2019-05-26T17:16:40.468Z,47.89
2019-05-26T17:19:08.407Z,48.24
2019-05-26T17:21:35.832Z,47.81
2019-05-26T17:24:03.852Z,50.03
2019-05-26T17:26:31.260Z,49.31
2019-05-26T17:28:58.755Z,50.99
2019-05-26T17:31:26.586Z,54.28
2019-05-26T17:33:54.545Z,54.00
2019-05-26T17:36:23.195Z,54.38
2019-05-26T17:38:50.673Z,56.35
2019-05-26T17:41:18.288Z,56.81
2019-05-26T17:43:45.754Z,55.66
2019-05-26T17:46:15.305Z,57.24
2019-05-26T17:48:44.167Z,57.78
2019-05-26T17:51:11.689Z,58.44
2019-05-26T17:53:39.548Z,58.63
2019-05-26T17:56:06.962Z,58.90
2019-05-26T17:58:34.991Z,59.14
2019-05-26T18:01:02.680Z,59.01
2019-05-26T18:03:30.194Z,57.44
2019-05-26T18:05:57.824Z,58.88
2019-05-26T18:08:36.129Z,58.14
2019-05-26T18:11:02.144Z,58.46
2019-05-26T18:13:35.668Z,59.47
2019-05-26T18:16:04.476Z,60.49
2019-05-26T18:18:32.174Z,59.54
2019-05-26T18:21:00.363Z,59.56
2019-05-26T18:23:27.843Z,59.69
2019-05-26T18:25:55.463Z,61.27
2019-05-26T18:28:25.448Z,60.36
2019-05-26T18:30:53.683Z,60.11
2019-05-26T18:33:22.010Z,60.18
2019-05-26T18:35:56.778Z,63.79
2019-05-26T18:38:42.783Z,63.57
2019-05-26T18:41:10.830Z,64.00
2019-05-26T18:43:41.045Z,61.65
2019-05-26T18:46:12.252Z,66.00
2019-05-26T18:48:42.605Z,62.89
2019-05-26T18:51:12.312Z,62.43
2019-05-26T18:53:39.822Z,63.65
2019-05-26T18:56:18.113Z,62.78
2019-05-26T18:58:45.744Z,64.17
2019-05-26T19:01:14.381Z,67.65
2019-05-26T19:03:46.586Z,68.41
2019-05-26T19:06:31.580Z,67.77
2019-05-26T19:09:00.136Z,67.53
2019-05-26T19:11:28.613Z,64.30
2019-05-26T19:13:58.843Z,66.88
2019-05-26T19:16:35.541Z,66.61
2019-05-26T19:19:03.611Z,68.23
2019-05-26T19:21:31.733Z,66.64
2019-05-26T19:23:59.407Z,66.79
2019-05-26T19:26:30.987Z,68.68
2019-05-26T19:28:59.083Z,67.22
2019-05-26T19:31:26.626Z,64.79
2019-05-26T19:33:55.688Z,66.16
2019-05-26T19:36:26.427Z,65.03
2019-05-26T19:41:42.385Z,66.98
2019-05-26T19:44:09.963Z,68.29
2019-05-26T19:46:38.736Z,68.96
2019-05-26T19:49:06.704Z,69.55
2019-05-26T19:51:34.780Z,68.40
2019-05-26T19:54:06.822Z,69.27
2019-05-26T19:56:34.316Z,68.17
2019-05-26T19:59:03.245Z,69.28
2019-05-26T20:01:30.712Z,69.49
2019-05-26T20:04:07.840Z,72.03
2019-05-26T20:06:35.747Z,68.24
2019-05-26T20:09:10.530Z,70.58
2019-05-26T20:11:40.600Z,70.34
2019-05-26T20:14:08.512Z,70.00
2019-05-26T20:16:46.118Z,69.04
2019-05-26T20:19:13.626Z,70.55
2019-05-26T20:21:41.524Z,69.39
2019-05-26T20:26:56.088Z,67.48
2019-05-26T20:29:24.719Z,69.79
2019-05-26T20:31:52.147Z,70.63
2019-05-26T20:34:19.541Z,70.24
2019-05-26T20:36:46.909Z,71.03
2019-05-26T20:39:23.713Z,70.20
2019-05-26T20:41:51.134Z,70.54
2019-05-26T20:44:20.869Z,71.21
2019-05-26T20:46:48.582Z,71.12
2019-05-26T20:49:18.155Z,72.29
2019-05-26T20:51:46.405Z,72.56
2019-05-26T20:54:13.792Z,72.68
2019-05-26T20:56:41.270Z,72.91
2019-05-26T20:59:08.598Z,71.85
2019-05-26T21:01:36.373Z,71.02
2019-05-26T21:04:03.874Z,72.36
2019-05-26T21:06:31.590Z,70.82
2019-05-26T21:08:58.961Z,70.99
2019-05-26T21:11:26.308Z,72.20
2019-05-26T21:13:53.630Z,70.94
2019-05-26T21:16:20.979Z,73.55
2019-05-26T21:18:48.312Z,73.23
2019-05-26T21:21:15.670Z,73.97
2019-05-26T21:23:42.997Z,73.61
2019-05-26T21:26:10.332Z,74.45
2019-05-26T21:28:37.679Z,75.40
2019-05-26T21:31:05.010Z,75.71
2019-05-26T21:33:32.350Z,74.12
2019-05-26T21:35:59.694Z,76.11
2019-05-26T21:38:27.033Z,75.55
2019-05-26T21:40:54.533Z,75.75
2019-05-26T21:43:21.970Z,73.69
2019-05-26T21:45:49.290Z,74.90
2019-05-26T21:48:16.619Z,76.57
2019-05-26T21:50:44.008Z,75.09
2019-05-26T21:53:11.274Z,76.41
2019-05-26T21:55:38.615Z,75.95
2019-05-26T21:58:05.951Z,76.67
2019-05-26T22:00:40.970Z,76.00
2019-05-26T22:03:08.349Z,76.50
2019-05-26T22:05:35.679Z,76.33
2019-05-26T22:08:03.059Z,76.10
2019-05-26T22:10:30.376Z,76.80
2019-05-26T22:12:57.778Z,75.10
2019-05-26T22:15:25.110Z,76.33
2019-05-26T22:17:52.452Z,76.03
2019-05-26T22:20:19.876Z,75.36
2019-05-26T22:22:47.199Z,77.96
2019-05-26T22:25:14.510Z,77.81
2019-05-26T22:27:41.839Z,76.13
2019-05-26T22:30:10.577Z,77.24
2019-05-26T22:32:37.911Z,77.48
2019-05-26T22:35:05.905Z,75.39
2019-05-26T22:37:33.211Z,76.74
2019-05-26T22:40:00.484Z,77.76
2019-05-26T22:42:27.830Z,75.24
2019-05-26T22:44:55.169Z,77.56
2019-05-26T22:47:22.510Z,79.08
2019-05-26T22:49:49.842Z,78.33
2019-05-26T22:52:17.932Z,77.28
2019-05-26T22:54:45.372Z,76.88
2019-05-26T22:57:12.682Z,76.46
2019-05-26T22:59:39.998Z,80.13
2019-05-26T23:02:07.309Z,79.68
2019-05-26T23:04:34.603Z,80.95
2019-05-26T23:07:01.959Z,78.30
2019-05-26T23:09:29.357Z,79.92
2019-05-26T23:11:56.689Z,79.43
2019-05-26T23:14:24.013Z,78.33
2019-05-26T23:16:51.279Z,77.49
2019-05-26T23:19:20.037Z,80.00
2019-05-26T23:21:47.651Z,79.62
2019-05-26T23:24:14.993Z,78.67
2019-05-26T23:26:42.331Z,79.71
2019-05-26T23:29:09.652Z,79.14
2019-05-26T23:31:36.954Z,79.48
2019-05-26T23:34:04.270Z,79.87
2019-05-26T23:36:31.589Z,79.05
2019-05-26T23:38:58.925Z,79.31
2019-05-26T23:41:26.213Z,80.04
2019-05-26T23:43:53.515Z,79.84
2019-05-26T23:46:20.809Z,79.70
2019-05-26T23:48:48.139Z,80.90
2019-05-26T23:51:15.479Z,80.08
2019-05-26T23:53:42.769Z,81.44
2019-05-26T23:56:10.148Z,80.03
2019-05-26T23:58:37.445Z,80.90
